Time;durP1;ratioP1;P1;durP2;ratioP2;P2;SDS_P1;SDS_P2;PMS_P1;PMS_P2;Temp;Humidity;BMP_temperature;BMP_pressure;BME280_temperature;BME280_humidity;BME280_pressure;Samples;Min_cycle;Max_cycle;Signal;HPM_P1;HPM_P2
2023/07/20 00:01:32;;;;;;;;;;;;;;;-144.99;100.00;52336.00;5037854;28;19925;-70
2023/07/20 00:03:59;;;;;;;;;;;;;;;-144.99;100.00;52323.75;5029130;28;19925;-71
2023/07/20 00:06:27;;;;;;;;;;;;;;;-144.99;100.00;52297.25;5029642;28;19951;-68
2023/07/20 00:08:54;;;;;;;;;;;;;;;-144.99;100.00;52350.25;5030494;28;19972;-66
2023/07/20 00:11:21;;;;;;;;;;;;;;;-144.99;100.00;52338.03;5029748;28;20016;-65
2023/07/20 00:13:47;;;;;;;;;;;;;;;-144.99;100.00;52295.22;5030480;28;19940;-66
2023/07/20 00:16:14;;;;;;;;;;;;;;;-144.99;100.00;52317.66;5029899;28;19932;-65
2023/07/20 00:18:42;;;;;;;;;;;;;;;-144.99;100.00;52358.41;5030381;28;19925;-67
2023/07/20 00:21:09;;;;;;;;;;;;;;;-144.99;100.00;52323.75;5028811;28;19936;-67
2023/07/20 00:23:35;;;;;;;;;;;;;;;-144.99;100.00;52352.28;5028678;28;20007;-65
2023/07/20 00:26:02;;;;;;;;;;;;;;;-144.99;100.00;52305.41;5029565;28;20075;-71
2023/07/20 00:28:29;;;;;;;;;;;;;;;-144.99;100.00;52340.06;5030521;28;19929;-71
2023/07/20 00:30:55;;;;;;;;;;;;;;;-144.99;100.00;52329.88;5030888;28;19954;-70
2023/07/20 00:33:22;;;;;;;;;;;;;;;-144.99;100.00;52350.25;5030854;28;19933;-70
2023/07/20 00:35:50;;;;;;;;;;;;;;;-144.99;100.00;52307.47;5031286;28;19929;-70
2023/07/20 00:38:17;;;;;;;;;;;;;;;-144.99;100.00;52321.72;5031025;28;19925;-70
2023/07/20 00:40:43;;;;;;;;;;;;;;;-144.99;100.00;52329.88;5030661;28;19961;-70
2023/07/20 00:43:10;;;;;;;;;;;;;;;-144.99;100.00;52338.03;5030501;28;19925;-70
2023/07/20 00:45:37;;;;;;;;;;;;;;;-144.99;100.00;52299.31;5030297;28;19925;-72
2023/07/20 00:48:05;;;;;;;;;;;;;;;-144.99;100.00;52325.81;5029964;28;19983;-70
2023/07/20 00:50:32;;;;;;;;;;;;;;;-144.99;100.00;52333.94;5034374;28;20016;-69
2023/07/20 00:53:00;;;;;;;;;;;;;;;-144.99;100.00;52307.47;5030046;28;20436;-69
2023/07/20 00:55:27;;;;;;;;;;;;;;;-144.99;100.00;52342.09;5030281;28;19931;-69
2023/07/20 00:57:54;;;;;;;;;;;;;;;-144.99;100.00;52329.88;5029878;28;20023;-68
2023/07/20 01:00:21;;;;;;;;;;;;;;;-144.99;100.00;52358.41;5029856;28;19929;-68
2023/07/20 01:02:47;;;;;;;;;;;;;;;-144.99;100.00;52325.81;5033687;28;19925;-68
2023/07/20 01:05:16;;;;;;;;;;;;;;;-144.99;100.00;52313.56;5031827;28;19925;-68
2023/07/20 01:07:47;;;;;;;;;;;;;;;-144.99;100.00;52319.69;5030898;28;19929;-67
2023/07/20 01:10:20;;;;;;;;;;;;;;;-144.99;100.00;52342.09;5027545;28;19986;-69
2023/07/20 01:12:48;;;;;;;;;;;;;;;-144.99;100.00;52338.03;5030659;28;19968;-69
2023/07/20 01:15:14;;;;;;;;;;;;;;;-144.99;100.00;52297.25;5030423;28;19929;-69
2023/07/20 01:17:41;;;;;;;;;;;;;;;-144.99;100.00;52285.03;5029632;28;19975;-68
2023/07/20 01:20:10;;;;;;;;;;;;;;;-144.99;100.00;52309.50;5029632;28;19944;-69
2023/07/20 01:22:48;;;;;;;;;;;;;;;-144.99;100.00;52321.72;5029792;28;20302;-67
2023/07/20 01:25:33;;;;;;;;;;;;;;;-144.99;100.00;52285.03;5032955;28;19932;-67
2023/07/20 01:28:19;;;;;;;;;;;;;;;-144.99;100.00;52350.25;5014950;28;19925;-67
2023/07/20 01:31:00;;;;;;;;;;;;;;;-144.99;100.00;52295.22;5024297;28;19932;-68
2023/07/20 01:33:29;;;;;;;;;;;;;;;-144.99;100.00;52309.50;5029000;28;19929;-68
2023/07/20 01:35:58;;;;;;;;;;;;;;;-144.99;100.00;52325.81;5029282;28;20374;-68
2023/07/20 01:38:25;;;;;;;;;;;;;;;-144.99;100.00;52323.75;5029858;28;19925;-67
2023/07/20 01:40:52;;;;;;;;;;;;;;;-144.99;100.00;52317.66;5028777;28;20409;-68
2023/07/20 01:43:19;;;;;;;;;;;;;;;-144.99;100.00;52270.78;5029834;28;19929;-67
2023/07/20 01:45:46;;;;;;;;;;;;;;;-144.99;100.00;52344.16;5030062;28;19925;-68
2023/07/20 01:48:12;;;;;;;;;;;;;;;-144.99;100.00;52346.19;5036361;28;19945;-72
2023/07/20 01:50:40;;;;;;;;;;;;;;;-144.99;100.00;52309.50;5034373;28;19933;-72
2023/07/20 01:53:07;;;;;;;;;;;;;;;-144.99;100.00;52329.88;5036921;28;19929;-72
2023/07/20 01:55:33;;;;;;;;;;;;;;;-144.99;100.00;52360.44;5029538;28;20459;-72
2023/07/20 01:58:01;;;;;;;;;;;;;;;-144.99;100.00;52336.00;5029398;28;20301;-72
2023/07/20 02:00:28;;;;;;;;;;;;;;;-144.99;100.00;52342.09;5025220;28;19932;-72
2023/07/20 02:02:54;;;;;;;;;;;;;;;-144.99;100.00;52309.50;5031496;28;19925;-71
2023/07/20 02:05:21;;;;;;;;;;;;;;;-144.99;100.00;52321.72;5037000;28;19936;-72
2023/07/20 02:07:49;;;;;;;;;;;;;;;-144.99;100.00;52313.56;5033843;28;19940;-72
2023/07/20 02:10:16;;;;;;;;;;;;;;;-144.99;100.00;52309.50;5030787;28;19925;-71
2023/07/20 02:12:43;;;;;;;;;;;;;;;-144.99;100.00;52333.94;5028975;28;19929;-68
2023/07/20 02:15:10;;;;;;;;;;;;;;;-144.99;100.00;52338.03;5028862;28;19929;-67
2023/07/20 02:17:36;;;;;;;;;;;;;;;-144.99;100.00;52348.22;5028736;28;19929;-67
2023/07/20 02:20:03;;;;;;;;;;;;;;;-144.99;100.00;52342.09;5028785;28;19968;-68
2023/07/20 02:22:30;;;;;;;;;;;;;;;-144.99;100.00;52329.88;5028149;28;19987;-68
2023/07/20 02:24:58;;;;;;;;;;;;;;;-144.99;100.00;52346.19;5028653;28;20358;-68
2023/07/20 02:27:25;;;;;;;;;;;;;;;-144.99;100.00;52350.25;5029027;28;19933;-68
2023/07/20 02:29:52;;;;;;;;;;;;;;;-144.99;100.00;52297.25;5028511;28;19929;-68
2023/07/20 02:32:18;;;;;;;;;;;;;;;-144.99;100.00;52321.72;5028712;28;19968;-68
2023/07/20 02:34:45;;;;;;;;;;;;;;;-144.99;100.00;52333.94;5028463;28;19933;-68
2023/07/20 02:37:12;;;;;;;;;;;;;;;-144.99;100.00;52329.88;5028459;28;19932;-69
2023/07/20 02:39:39;;;;;;;;;;;;;;;-144.99;100.00;52321.72;5028508;28;20298;-71
2023/07/20 02:42:07;;;;;;;;;;;;;;;-144.99;100.00;52338.03;5028143;28;19936;-70
2023/07/20 02:44:34;;;;;;;;;;;;;;;-144.99;100.00;52291.16;5028331;28;19936;-71
2023/07/20 02:47:01;;;;;;;;;;;;;;;-144.99;100.00;52358.41;5034815;28;19943;-72
2023/07/20 02:49:27;;;;;;;;;;;;;;;-144.99;100.00;52321.72;5031931;28;19932;-71
2023/07/20 02:51:54;;;;;;;;;;;;;;;-144.99;100.00;52325.81;5036582;28;19932;-71
2023/07/20 02:54:20;;;;;;;;;;;;;;;-144.99;100.00;52325.81;5029513;28;19932;-71
2023/07/20 02:56:47;;;;;;;;;;;;;;;-144.99;100.00;52368.59;5033638;28;20263;-70
2023/07/20 02:59:15;;;;;;;;;;;;;;;-144.99;100.00;52325.81;5031303;28;19929;-71
2023/07/20 03:01:42;;;;;;;;;;;;;;;-144.99;100.00;52329.88;5022189;28;20388;-71
2023/07/20 03:04:09;;;;;;;;;;;;;;;-144.99;100.00;52303.38;5032462;28;20207;-70
2023/07/20 03:06:36;;;;;;;;;;;;;;;-144.99;100.00;52305.41;5028095;28;19951;-72
2023/07/20 03:09:03;;;;;;;;;;;;;;;-144.99;100.00;52321.72;5028835;28;20068;-68
2023/07/20 03:11:30;;;;;;;;;;;;;;;-144.99;100.00;52329.88;5032150;28;19925;-69
2023/07/20 03:13:57;;;;;;;;;;;;;;;-144.99;100.00;52321.72;5029097;28;19929;-69
2023/07/20 03:16:25;;;;;;;;;;;;;;;-144.99;100.00;52309.50;5028721;28;19933;-67
2023/07/20 03:18:51;;;;;;;;;;;;;;;-144.99;100.00;52319.69;5028356;28;19925;-67
2023/07/20 03:21:18;;;;;;;;;;;;;;;-144.99;100.00;52280.97;5028194;28;19937;-66
2023/07/20 03:23:44;;;;;;;;;;;;;;;-144.99;100.00;52309.50;5028118;28;19925;-66
2023/07/20 03:26:11;;;;;;;;;;;;;;;-144.99;100.00;52342.09;5027634;28;20089;-71
2023/07/20 03:28:38;;;;;;;;;;;;;;;-144.99;100.00;52305.41;5028735;28;19933;-69
2023/07/20 03:31:05;;;;;;;;;;;;;;;-144.99;100.00;52399.19;5028726;28;19964;-69
2023/07/20 03:33:33;;;;;;;;;;;;;;;-144.99;100.00;52342.09;5030461;28;20404;-69
2023/07/20 03:36:01;;;;;;;;;;;;;;;-144.99;100.00;52336.00;5031203;28;19925;-68
2023/07/20 03:38:27;;;;;;;;;;;;;;;-144.99;100.00;52346.19;5030834;28;19925;-67
2023/07/20 03:40:54;;;;;;;;;;;;;;;-144.99;100.00;52346.19;5030998;28;20343;-67
2023/07/20 03:43:21;;;;;;;;;;;;;;;-144.99;100.00;52317.66;5035176;28;19925;-67
2023/07/20 03:45:48;;;;;;;;;;;;;;;-144.99;100.00;52305.41;5033548;28;20381;-67
2023/07/20 03:48:16;;;;;;;;;;;;;;;-144.99;100.00;52301.34;5036694;28;20032;-67
2023/07/20 03:50:44;;;;;;;;;;;;;;;-144.99;100.00;52283.00;5035923;28;19948;-67
2023/07/20 03:53:11;;;;;;;;;;;;;;;-144.99;100.00;52323.75;5031200;28;19929;-68
2023/07/20 03:55:38;;;;;;;;;;;;;;;-144.99;100.00;52301.34;5031372;28;19940;-67
2023/07/20 03:58:05;;;;;;;;;;;;;;;-144.99;100.00;52315.59;5031006;28;19928;-67
2023/07/20 04:00:31;;;;;;;;;;;;;;;-144.99;100.00;52317.66;5030212;28;20009;-67
2023/07/20 04:02:58;;;;;;;;;;;;;;;-144.99;100.00;52289.13;5030497;28;19969;-67
2023/07/20 04:05:25;;;;;;;;;;;;;;;-144.99;100.00;52293.19;5030386;28;20318;-67
2023/07/20 04:07:53;;;;;;;;;;;;;;;-144.99;100.00;52325.81;5029247;28;19928;-67
2023/07/20 04:10:20;;;;;;;;;;;;;;;-144.99;100.00;52309.50;5027310;28;19932;-68
2023/07/20 04:12:47;;;;;;;;;;;;;;;-144.99;100.00;52329.88;5028937;28;19925;-71
2023/07/20 04:15:14;;;;;;;;;;;;;;;-144.99;100.00;52309.50;5028894;28;19976;-72
2023/07/20 04:17:52;;;;;;;;;;;;;;;-144.99;100.00;52340.06;5027352;28;19929;-72
2023/07/20 04:20:19;;;;;;;;;;;;;;;-144.99;100.00;52301.34;5030869;28;19925;-71
2023/07/20 04:22:46;;;;;;;;;;;;;;;-144.99;100.00;52317.66;5030460;28;20073;-72
2023/07/20 04:25:14;;;;;;;;;;;;;;;-144.99;100.00;52344.16;5028275;28;19951;-72
2023/07/20 04:27:41;;;;;;;;;;;;;;;-144.99;100.00;52333.94;5027798;28;19936;-71
2023/07/20 04:30:08;;;;;;;;;;;;;;;-144.99;100.00;52297.25;5027423;28;21116;-69
2023/07/20 04:32:35;;;;;;;;;;;;;;;-144.99;100.00;52333.94;5027256;28;19969;-69
2023/07/20 04:35:01;;;;;;;;;;;;;;;-144.99;100.00;52309.50;5029873;28;19925;-69
2023/07/20 04:37:29;;;;;;;;;;;;;;;-144.99;100.00;52317.66;5030324;28;19932;-69
2023/07/20 04:39:56;;;;;;;;;;;;;;;-144.99;100.00;52317.66;5030233;28;20019;-69
2023/07/20 04:42:24;;;;;;;;;;;;;;;-144.99;100.00;52305.41;5029126;28;19925;-69
2023/07/20 04:44:50;;;;;;;;;;;;;;;-144.99;100.00;52317.66;5029181;28;19925;-70
2023/07/20 04:47:17;;;;;;;;;;;;;;;-144.99;100.00;52338.03;5030142;28;20171;-69
2023/07/20 04:49:44;;;;;;;;;;;;;;;-144.99;100.00;52305.41;5034940;28;19925;-69
2023/07/20 04:52:10;;;;;;;;;;;;;;;-144.99;100.00;52325.81;5030889;28;19929;-69
2023/07/20 04:54:37;;;;;;;;;;;;;;;-144.99;100.00;52311.53;5028797;28;20433;-69
2023/07/20 04:57:10;;;;;;;;;;;;;;;-144.99;100.00;52321.72;5030149;28;20425;-69
2023/07/20 04:59:38;;;;;;;;;;;;;;;-144.99;100.00;52297.25;5042380;22;19929;-67
2023/07/20 05:02:05;;;;;;;;;;;;;;;-144.99;100.00;52301.34;5027376;28;19940;-66
2023/07/20 05:04:32;;;;;;;;;;;;;;;-144.99;100.00;52311.53;5019822;28;19943;-66
2023/07/20 05:06:59;;;;;;;;;;;;;;;-144.99;100.00;52289.13;5022031;28;19925;-66
2023/07/20 05:09:25;;;;;;;;;;;;;;;-144.99;100.00;52321.72;5025274;28;20405;-66
2023/07/20 05:11:52;;;;;;;;;;;;;;;-144.99;100.00;52285.03;5022449;28;19929;-66
2023/07/20 05:14:18;;;;;;;;;;;;;;;-144.99;100.00;52317.66;5019848;28;19972;-65
2023/07/20 05:16:46;;;;;;;;;;;;;;;-144.99;100.00;52317.66;5025942;28;20277;-65
2023/07/20 05:19:13;;;;;;;;;;;;;;;-144.99;100.00;52272.81;5026951;28;19929;-64
2023/07/20 05:21:40;;;;;;;;;;;;;;;-144.99;100.00;52297.25;5026172;28;19935;-67
2023/07/20 05:24:07;;;;;;;;;;;;;;;-144.99;100.00;52278.91;5014137;28;19929;-65
2023/07/20 05:26:34;;;;;;;;;;;;;;;-144.99;100.00;52280.97;5026815;28;19935;-65
2023/07/20 05:29:01;;;;;;;;;;;;;;;-144.99;100.00;52293.19;5015633;28;20007;-67
2023/07/20 05:31:30;;;;;;;;;;;;;;;-144.99;100.00;52289.13;5019539;28;20386;-67
2023/07/20 05:33:58;;;;;;;;;;;;;;;-144.99;100.00;52297.25;5017898;28;20373;-66
2023/07/20 05:36:25;;;;;;;;;;;;;;;-144.99;100.00;52313.56;5023414;28;19933;-67
2023/07/20 05:38:52;;;;;;;;;;;;;;;-144.99;100.00;52301.34;5023437;28;19928;-67
2023/07/20 05:41:18;;;;;;;;;;;;;;;-144.99;100.00;52283.00;5019859;28;19925;-66
2023/07/20 05:43:45;;;;;;;;;;;;;;;-144.99;100.00;52317.66;5016585;28;20385;-67
2023/07/20 05:46:11;;;;;;;;;;;;;;;-144.99;99.90;52268.72;5023553;28;19936;-66
2023/07/20 05:48:38;;;;;;;;;;;;;;;-144.99;98.91;52305.41;5017923;28;19996;-67
2023/07/20 05:51:06;;;;;;;;;;;;;;;-144.99;98.22;52323.75;5019661;28;19925;-66
2023/07/20 05:53:33;;;;;;;;;;;;;;;-144.99;98.04;52246.31;5007695;28;19933;-66
2023/07/20 05:55:59;;;;;;;;;;;;;;;-144.99;96.85;52305.41;5016935;28;19925;-67
2023/07/20 05:58:26;;;;;;;;;;;;;;;-144.99;95.37;52280.97;5011998;28;20282;-67
2023/07/20 06:00:54;;;;;;;;;;;;;;;-144.99;94.81;52313.56;5020428;28;19925;-66
2023/07/20 06:03:21;;;;;;;;;;;;;;;-144.99;94.90;52260.56;5021348;28;19925;-66
2023/07/20 06:05:48;;;;;;;;;;;;;;;-144.99;94.19;52280.97;5021783;28;19974;-67
2023/07/20 06:08:16;;;;;;;;;;;;;;;-144.99;93.19;52260.56;5016584;28;20401;-67
2023/07/20 06:10:42;;;;;;;;;;;;;;;-144.99;92.40;52285.03;5019395;28;20364;-67
2023/07/20 06:13:09;;;;;;;;;;;;;;;-144.99;91.65;52268.72;5015448;28;19977;-68
2023/07/20 06:15:35;;;;;;;;;;;;;;;-144.99;89.35;52301.34;5020503;28;20291;-67
2023/07/20 06:18:03;;;;;;;;;;;;;;;-144.99;89.50;52309.50;5026900;28;20007;-68
2023/07/20 06:20:30;;;;;;;;;;;;;;;-144.99;89.62;52270.78;5017426;28;19975;-69
2023/07/20 06:22:57;;;;;;;;;;;;;;;-144.99;89.51;52264.66;5016491;28;20009;-69
2023/07/20 06:25:25;;;;;;;;;;;;;;;-144.99;88.94;52256.50;5013225;28;20402;-69
2023/07/20 06:27:52;;;;;;;;;;;;;;;-144.99;88.44;52240.19;5016933;28;19933;-67
2023/07/20 06:30:18;;;;;;;;;;;;;;;-144.99;86.85;52260.56;5026907;28;20006;-67
2023/07/20 06:32:45;;;;;;;;;;;;;;;-144.99;87.14;52283.00;5021156;28;19992;-68
2023/07/20 06:35:12;;;;;;;;;;;;;;;-144.99;86.37;52280.97;5021489;28;19936;-67
2023/07/20 06:37:39;;;;;;;;;;;;;;;-144.99;85.56;52293.19;4998420;28;20382;-67
2023/07/20 06:40:08;;;;;;;;;;;;;;;-144.99;85.05;52301.34;5023009;28;19946;-69
2023/07/20 06:42:36;;;;;;;;;;;;;;;-144.99;83.80;52264.66;5018908;28;19925;-69
2023/07/20 06:45:03;;;;;;;;;;;;;;;-144.99;82.95;52264.66;5017679;28;19925;-69
2023/07/20 06:47:30;;;;;;;;;;;;;;;-144.99;83.06;52242.22;5024968;28;19944;-69
2023/07/20 06:49:57;;;;;;;;;;;;;;;-144.99;82.05;52252.44;5017881;28;19999;-69
2023/07/20 06:52:23;;;;;;;;;;;;;;;-144.99;82.58;52280.97;5023956;28;19933;-71
2023/07/20 06:54:50;;;;;;;;;;;;;;;-144.99;82.32;52268.72;5022299;28;19989;-68
2023/07/20 06:57:17;;;;;;;;;;;;;;;-144.99;84.86;52221.84;5017801;28;19929;-68
2023/07/20 06:59:45;;;;;;;;;;;;;;;-144.99;86.93;52285.03;5017741;28;19925;-68
2023/07/20 07:02:12;;;;;;;;;;;;;;;-144.99;89.18;52270.78;5023821;28;19929;-69
2023/07/20 07:04:39;;;;;;;;;;;;;;;-144.99;90.46;52301.34;5019277;28;19936;-70
2023/07/20 07:07:05;;;;;;;;;;;;;;;-144.99;89.85;52293.19;5017114;28;19936;-69
2023/07/20 07:09:32;;;;;;;;;;;;;;;-144.99;89.27;52289.13;5023195;28;19936;-68
2023/07/20 07:11:59;;;;;;;;;;;;;;;-144.99;88.62;52305.41;5024588;28;20356;-69
2023/07/20 07:14:25;;;;;;;;;;;;;;;-144.99;88.74;52293.19;5024855;28;19983;-68
2023/07/20 07:16:53;;;;;;;;;;;;;;;-144.99;88.53;52268.72;5027596;28;20482;-68
2023/07/20 07:19:20;;;;;;;;;;;;;;;-144.99;87.79;52293.19;5021998;28;20420;-66
2023/07/20 07:21:47;;;;;;;;;;;;;;;-144.99;87.71;52268.72;5023451;28;19926;-66
2023/07/20 07:24:14;;;;;;;;;;;;;;;-144.99;87.35;52272.81;5018390;28;20372;-66
2023/07/20 07:26:40;;;;;;;;;;;;;;;-144.99;88.08;52264.66;5025046;28;19936;-68
2023/07/20 07:29:07;;;;;;;;;;;;;;;-144.99;87.39;52313.56;5028907;28;19956;-67
2023/07/20 07:31:35;;;;;;;;;;;;;;;-144.99;86.91;52317.66;5021812;28;20398;-66
2023/07/20 07:34:03;;;;;;;;;;;;;;;-144.99;87.90;52278.91;5021828;28;19947;-67
2023/07/20 07:36:29;;;;;;;;;;;;;;;-144.99;88.28;52301.34;5015624;28;19925;-66
2023/07/20 07:38:56;;;;;;;;;;;;;;;-144.99;88.34;52264.66;5020646;28;19972;-66
2023/07/20 07:41:23;;;;;;;;;;;;;;;-144.99;86.98;52297.25;5027298;28;19936;-67
2023/07/20 07:43:49;;;;;;;;;;;;;;;-144.99;85.36;52248.34;5029680;28;19965;-67
2023/07/20 07:46:16;;;;;;;;;;;;;;;-144.99;85.09;52244.28;5022845;28;19932;-67
2023/07/20 07:48:43;;;;;;;;;;;;;;;-144.99;85.49;52285.03;5016411;28;20014;-67
2023/07/20 07:51:11;;;;;;;;;;;;;;;-144.99;83.55;52276.88;5026821;28;20305;-66
2023/07/20 07:53:39;;;;;;;;;;;;;;;-144.99;83.55;52236.13;5026921;28;19929;-67
2023/07/20 07:56:08;;;;;;;;;;;;;;;-144.99;82.25;52252.44;5024667;28;19929;-67
2023/07/20 07:58:34;;;;;;;;;;;;;;;-144.99;81.22;52285.03;5028525;28;20025;-66
2023/07/20 08:01:01;;;;;;;;;;;;;;;-144.99;81.08;52260.56;5023303;28;19936;-67
2023/07/20 08:03:28;;;;;;;;;;;;;;;-144.99;80.71;52252.44;5024664;28;19932;-67
2023/07/20 08:05:55;;;;;;;;;;;;;;;-144.99;78.58;52280.97;5021374;28;20390;-67
2023/07/20 08:08:23;;;;;;;;;;;;;;;-144.99;78.71;52293.19;5026982;28;20382;-68
2023/07/20 08:10:50;;;;;;;;;;;;;;;-144.99;78.06;52248.34;5023273;28;19936;-67
2023/07/20 08:13:16;;;;;;;;;;;;;;;-144.99;77.18;52193.31;5028191;28;19929;-68
2023/07/20 08:15:50;;;;;;;;;;;;;;;-144.99;74.78;52285.03;5021363;28;20381;-67
2023/07/20 08:18:16;;;;;;;;;;;;;;;-144.99;74.96;52252.44;5027819;28;19941;-67
2023/07/20 08:20:44;;;;;;;;;;;;;;;-144.99;74.20;52248.34;5026624;28;19937;-67
2023/07/20 08:23:11;;;;;;;;;;;;;;;-144.99;72.24;52223.88;5026452;28;19926;-67
2023/07/20 08:25:41;;;;;;;;;;;;;;;-144.99;72.65;52250.38;5024931;28;19933;-66
2023/07/20 08:28:09;;;;;;;;;;;;;;;-144.99;72.97;52236.13;5018706;28;19929;-67
2023/07/20 08:30:40;;;;;;;;;;;;;;;-144.99;70.84;52232.03;5021286;28;19929;-67
2023/07/20 08:33:07;;;;;;;;;;;;;;;-144.99;70.65;52236.13;5020929;28;19932;-67
2023/07/20 08:35:34;;;;;;;;;;;;;;;-144.99;71.21;52252.44;5021349;28;19929;-68
2023/07/20 08:38:00;;;;;;;;;;;;;;;-144.99;69.21;52244.28;5025086;28;19955;-69
2023/07/20 08:40:27;;;;;;;;;;;;;;;-144.99;69.49;52223.88;5024392;28;19925;-68
2023/07/20 08:42:55;;;;;;;;;;;;;;;-144.99;69.63;52244.28;5026056;28;19925;-69
2023/07/20 08:45:23;;;;;;;;;;;;;;;-144.99;69.81;52246.31;5021179;28;19925;-68
2023/07/20 08:47:50;;;;;;;;;;;;;;;-144.99;69.55;52219.81;5028885;28;20407;-68
2023/07/20 08:50:17;;;;;;;;;;;;;;;-144.99;69.37;52268.72;5017798;28;20017;-68
2023/07/20 08:52:44;;;;;;;;;;;;;;;-144.99;73.91;52256.50;5024770;28;20035;-70
2023/07/20 08:55:10;;;;;;;;;;;;;;;-144.99;76.73;52256.50;5018829;28;19925;-71
2023/07/20 08:57:37;;;;;;;;;;;;;;;-144.99;78.39;52248.34;5016369;28;19929;-69
2023/07/20 09:00:09;;;;;;;;;;;;;;;-144.99;79.10;52276.88;5017615;28;19933;-69
2023/07/20 09:02:40;;;;;;;;;;;;;;;-144.99;79.14;52236.13;5023553;28;20032;-68
2023/07/20 09:05:08;;;;;;;;;;;;;;;-144.99;79.07;52280.97;5015890;28;19931;-68
2023/07/20 09:07:36;;;;;;;;;;;;;;;-144.99;79.52;52248.34;5027440;28;20052;-68
2023/07/20 09:10:05;;;;;;;;;;;;;;;-144.99;80.41;52258.53;5026032;28;19956;-67
2023/07/20 09:12:32;;;;;;;;;;;;;;;-144.99;79.81;52264.66;5021929;28;20048;-69
2023/07/20 09:14:59;;;;;;;;;;;;;;;-144.99;80.63;52240.19;5023683;28;19948;-69
2023/07/20 09:17:28;;;;;;;;;;;;;;;-144.99;78.56;52256.50;5020991;28;19960;-69
2023/07/20 09:19:54;;;;;;;;;;;;;;;-144.99;77.83;52240.19;5023570;28;19925;-70
2023/07/20 09:22:21;;;;;;;;;;;;;;;-144.99;76.10;52252.44;5019364;28;19995;-70
2023/07/20 09:24:48;;;;;;;;;;;;;;;-144.99;76.18;52227.97;5020974;28;19947;-70
2023/07/20 09:27:14;;;;;;;;;;;;;;;-144.99;75.71;52244.28;5018656;28;20393;-71
2023/07/20 09:29:48;;;;;;;;;;;;;;;-144.99;74.55;52248.34;5019139;28;19955;-70
2023/07/20 09:32:18;;;;;;;;;;;;;;;-144.99;74.89;52240.19;5005887;28;19937;-71
2023/07/20 09:34:46;;;;;;;;;;;;;;;-144.99;74.21;52250.38;5025696;28;19969;-70
2023/07/20 09:37:13;;;;;;;;;;;;;;;-144.99;73.43;52183.13;5019566;28;20055;-70
2023/07/20 09:39:44;;;;;;;;;;;;;;;-144.99;71.93;52221.84;5023339;28;20354;-69
2023/07/20 09:42:11;;;;;;;;;;;;;;;-144.99;69.75;52203.50;5019740;28;19925;-70
2023/07/20 09:44:39;;;;;;;;;;;;;;;-144.99;68.95;52213.69;5022363;28;19929;-70
2023/07/20 09:47:06;;;;;;;;;;;;;;;-144.99;68.71;52191.28;5027972;28;20265;-70
2023/07/20 09:49:33;;;;;;;;;;;;;;;-144.99;67.87;52195.34;5002670;28;19936;-70
2023/07/20 09:52:02;;;;;;;;;;;;;;;-144.99;67.33;52191.28;5023751;28;19925;-69
2023/07/20 09:54:32;;;;;;;;;;;;;;;-144.99;67.02;52179.06;5021787;28;20276;-70
2023/07/20 09:56:59;;;;;;;;;;;;;;;-144.99;67.57;52183.13;5018517;28;20410;-70
2023/07/20 09:59:25;;;;;;;;;;;;;;;-144.99;67.00;52209.63;5023371;28;19975;-71
2023/07/20 10:01:54;;;;;;;;;;;;;;;-144.99;66.91;52203.50;5022362;28;19925;-70
2023/07/20 10:04:22;;;;;;;;;;;;;;;-144.99;66.73;52187.19;5025161;28;19929;-70
2023/07/20 10:06:52;;;;;;;;;;;;;;;-144.99;67.65;52191.28;5025638;28;19925;-68
2023/07/20 10:09:21;;;;;;;;;;;;;;;-144.99;67.95;52199.44;5022752;28;19926;-68
2023/07/20 10:11:50;;;;;;;;;;;;;;;-144.99;67.39;52162.75;5023742;28;19932;-68
2023/07/20 10:14:20;;;;;;;;;;;;;;;-144.99;66.25;52179.06;5021034;28;19934;-68
2023/07/20 10:16:51;;;;;;;;;;;;;;;-144.99;66.01;52183.13;5021359;28;19933;-69
2023/07/20 10:19:24;;;;;;;;;;;;;;;-144.99;65.52;52174.97;5015287;28;20068;-68
2023/07/20 10:21:55;;;;;;;;;;;;;;;-144.99;65.73;52203.50;5005823;28;20313;-69
2023/07/20 10:24:24;;;;;;;;;;;;;;;-144.99;65.92;52195.34;5016011;28;19948;-68
2023/07/20 10:26:51;;;;;;;;;;;;;;;-144.99;66.07;52179.06;5021244;28;19925;-67
2023/07/20 10:29:18;;;;;;;;;;;;;;;-144.99;66.11;52183.13;5025247;28;20044;-68
2023/07/20 10:31:45;;;;;;;;;;;;;;;-144.99;66.57;52179.06;5027197;28;19953;-68
2023/07/20 10:34:12;;;;;;;;;;;;;;;-144.99;66.13;52148.47;5020002;28;19934;-68
2023/07/20 10:36:45;;;;;;;;;;;;;;;-144.99;66.21;52134.22;5020968;28;19932;-68
2023/07/20 10:39:23;;;;;;;;;;;;;;;-144.99;65.73;52140.31;5023614;28;19984;-69
2023/07/20 10:41:51;;;;;;;;;;;;;;;-144.99;65.39;52174.97;5015539;28;19926;-69
2023/07/20 10:44:21;;;;;;;;;;;;;;;-144.99;67.18;52248.34;5021876;28;19933;-68
2023/07/20 10:46:47;;;;;;;;;;;;;;;-144.99;68.98;52264.66;5024216;28;20280;-69
2023/07/20 10:49:15;;;;;;;;;;;;;;;-144.99;71.24;52223.88;5023616;28;20330;-68
2023/07/20 10:51:42;;;;;;;;;;;;;;;-144.99;73.22;52240.19;5014529;28;19929;-68
2023/07/20 10:54:10;;;;;;;;;;;;;;;-144.99;72.59;52223.88;5013852;28;20377;-67
2023/07/20 10:56:36;;;;;;;;;;;;;;;-144.99;69.98;52132.19;5015957;28;19940;-68
2023/07/20 10:59:18;;;;;;;;;;;;;;;-144.99;68.78;52187.19;5022123;28;20009;-68
2023/07/20 11:01:45;;;;;;;;;;;;;;;-144.99;67.93;52130.13;5025489;28;20295;-68
2023/07/20 11:04:11;;;;;;;;;;;;;;;-144.99;67.50;52142.38;5014110;28;20294;-68
2023/07/20 11:06:40;;;;;;;;;;;;;;;-144.99;67.86;52158.66;5020219;28;19968;-69
2023/07/20 11:09:10;;;;;;;;;;;;;;;-144.99;67.63;52138.28;5016838;28;19948;-68
2023/07/20 11:11:37;;;;;;;;;;;;;;;-144.99;67.23;52111.78;5030507;28;19961;-68
2023/07/20 11:14:06;;;;;;;;;;;;;;;-144.99;66.96;52060.84;5022618;28;20361;-67
2023/07/20 11:16:34;;;;;;;;;;;;;;;-144.99;65.55;52073.06;5021519;28;19930;-68
2023/07/20 11:19:01;;;;;;;;;;;;;;;-144.99;65.05;52028.22;5021050;28;19939;-68
2023/07/20 11:21:27;;;;;;;;;;;;;;;-144.99;63.85;52117.91;5018629;28;19930;-68
2023/07/20 11:23:54;;;;;;;;;;;;;;;-144.99;64.08;52044.53;5021042;28;20127;-69
2023/07/20 11:26:21;;;;;;;;;;;;;;;-144.99;63.53;52044.53;5023550;28;20021;-66
2023/07/20 11:28:51;;;;;;;;;;;;;;;-144.99;63.88;52142.38;5015672;28;19932;-69
2023/07/20 11:31:19;;;;;;;;;;;;;;;-144.99;63.85;52109.75;5019153;28;19929;-68
2023/07/20 11:33:46;;;;;;;;;;;;;;;-144.99;63.85;52089.38;5019304;28;19932;-68
2023/07/20 11:36:13;;;;;;;;;;;;;;;-144.99;63.34;52195.34;5017539;28;20446;-69
2023/07/20 11:38:42;;;;;;;;;;;;;;;-144.99;63.15;52219.81;5023395;28;19925;-68
2023/07/20 11:41:08;;;;;;;;;;;;;;;-144.99;63.48;52181.09;5018644;28;19935;-68
2023/07/20 11:43:37;;;;;;;;;;;;;;;-144.99;62.74;52109.75;5025282;28;19975;-68
2023/07/20 11:46:05;;;;;;;;;;;;;;;-144.99;62.04;52105.69;5014214;28;19968;-68
2023/07/20 11:48:33;;;;;;;;;;;;;;;-144.99;61.52;52028.22;5020413;28;19979;-69
2023/07/20 11:51:00;;;;;;;;;;;;;;;-144.99;61.70;52052.69;5019271;28;19929;-69
2023/07/20 11:53:27;;;;;;;;;;;;;;;-144.99;61.87;52101.59;5022533;28;20046;-69
2023/07/20 11:55:53;;;;;;;;;;;;;;;-144.99;63.10;52056.78;5022546;28;20331;-69
2023/07/20 11:58:21;;;;;;;;;;;;;;;-144.99;63.48;52115.88;4996868;28;19925;-69
2023/07/20 12:00:48;;;;;;;;;;;;;;;-144.99;63.52;52109.75;5025257;28;19929;-68
2023/07/20 12:03:15;;;;;;;;;;;;;;;-144.99;63.58;52119.94;5017037;28;20028;-68
2023/07/20 12:05:43;;;;;;;;;;;;;;;-144.99;63.22;52121.97;5022279;28;19929;-69
2023/07/20 12:08:09;;;;;;;;;;;;;;;-144.99;63.89;52030.28;5022520;28;19970;-68
2023/07/20 12:10:43;;;;;;;;;;;;;;;-144.99;63.60;52121.97;5019663;28;19936;-68
2023/07/20 12:13:11;;;;;;;;;;;;;;;-144.99;63.27;52109.75;5028449;28;19936;-69
2023/07/20 12:15:38;;;;;;;;;;;;;;;-144.99;63.13;52134.22;5016584;28;19939;-69
2023/07/20 12:18:06;;;;;;;;;;;;;;;-144.99;63.39;52126.06;5022166;28;19933;-69
2023/07/20 12:20:33;;;;;;;;;;;;;;;-144.99;62.93;52044.53;5027967;28;20021;-69
2023/07/20 12:23:01;;;;;;;;;;;;;;;-144.99;62.83;52113.84;5022461;28;19932;-68
2023/07/20 12:25:42;;;;;;;;;;;;;;;-144.99;62.69;52107.72;5027957;28;20059;-69